sensor_id;sensor_type;location;lat;lon;timestamp;P1;durP1;ratioP1;P2;durP2;ratioP2
43529;SDS011;55654;50.966;6.878;2023-02-28T00:00:03;5.73;;;2.37;;
43529;SDS011;55654;50.966;6.878;2023-02-28T00:02:39;5.27;;;2.40;;
43529;SDS011;55654;50.966;6.878;2023-02-28T00:05:05;5.33;;;2.20;;
43529;SDS011;55654;50.966;6.878;2023-02-28T00:07:34;5.80;;;2.30;;
43529;SDS011;55654;50.966;6.878;2023-02-28T00:10:00;5.37;;;2.20;;
43529;SDS011;55654;50.966;6.878;2023-02-28T00:12:27;3.93;;;2.03;;
43529;SDS011;55654;50.966;6.878;2023-02-28T00:14:55;6.50;;;3.10;;
43529;SDS011;55654;50.966;6.878;2023-02-28T00:17:21;4.23;;;2.20;;
43529;SDS011;55654;50.966;6.878;2023-02-28T00:19:47;5.93;;;2.33;;
43529;SDS011;55654;50.966;6.878;2023-02-28T00:22:14;2.67;;;1.90;;
43529;SDS011;55654;50.966;6.878;2023-02-28T00:24:41;6.43;;;2.00;;
43529;SDS011;55654;50.966;6.878;2023-02-28T00:27:07;6.40;;;2.33;;
43529;SDS011;55654;50.966;6.878;2023-02-28T00:29:33;6.73;;;2.50;;
43529;SDS011;55654;50.966;6.878;2023-02-28T00:31:59;6.33;;;2.60;;
43529;SDS011;55654;50.966;6.878;2023-02-28T00:34:25;4.03;;;2.20;;
43529;SDS011;55654;50.966;6.878;2023-02-28T00:36:51;6.97;;;2.77;;
43529;SDS011;55654;50.966;6.878;2023-02-28T00:39:19;5.53;;;2.60;;
43529;SDS011;55654;50.966;6.878;2023-02-28T00:41:45;5.50;;;2.70;;
43529;SDS011;55654;50.966;6.878;2023-02-28T00:44:11;3.90;;;2.40;;
43529;SDS011;55654;50.966;6.878;2023-02-28T00:46:37;4.40;;;2.43;;
43529;SDS011;55654;50.966;6.878;2023-02-28T00:49:05;6.73;;;2.77;;
43529;SDS011;55654;50.966;6.878;2023-02-28T00:51:31;12.23;;;2.73;;
43529;SDS011;55654;50.966;6.878;2023-02-28T00:53:59;5.40;;;2.43;;
43529;SDS011;55654;50.966;6.878;2023-02-28T00:56:25;4.37;;;2.73;;
43529;SDS011;55654;50.966;6.878;2023-02-28T00:58:51;8.23;;;2.37;;
43529;SDS011;55654;50.966;6.878;2023-02-28T01:01:17;7.90;;;2.10;;
43529;SDS011;55654;50.966;6.878;2023-02-28T01:03:46;4.07;;;2.53;;
43529;SDS011;55654;50.966;6.878;2023-02-28T01:06:14;4.17;;;2.40;;
43529;SDS011;55654;50.966;6.878;2023-02-28T01:08:40;7.67;;;2.73;;
43529;SDS011;55654;50.966;6.878;2023-02-28T01:11:07;10.27;;;2.53;;
43529;SDS011;55654;50.966;6.878;2023-02-28T01:13:33;5.43;;;2.60;;
43529;SDS011;55654;50.966;6.878;2023-02-28T01:15:59;5.17;;;2.30;;
43529;SDS011;55654;50.966;6.878;2023-02-28T01:18:27;5.57;;;2.40;;
43529;SDS011;55654;50.966;6.878;2023-02-28T01:20:54;5.07;;;2.63;;
43529;SDS011;55654;50.966;6.878;2023-02-28T01:23:21;7.90;;;2.40;;
43529;SDS011;55654;50.966;6.878;2023-02-28T01:25:48;6.53;;;2.60;;
43529;SDS011;55654;50.966;6.878;2023-02-28T01:28:14;5.20;;;2.60;;
43529;SDS011;55654;50.966;6.878;2023-02-28T01:30:46;4.17;;;2.50;;
43529;SDS011;55654;50.966;6.878;2023-02-28T01:33:13;7.37;;;2.40;;
43529;SDS011;55654;50.966;6.878;2023-02-28T01:35:39;4.73;;;2.30;;
43529;SDS011;55654;50.966;6.878;2023-02-28T01:38:05;8.57;;;2.67;;
43529;SDS011;55654;50.966;6.878;2023-02-28T01:40:32;5.63;;;2.60;;
43529;SDS011;55654;50.966;6.878;2023-02-28T01:42:58;4.53;;;2.47;;
43529;SDS011;55654;50.966;6.878;2023-02-28T01:45:28;4.60;;;2.37;;
43529;SDS011;55654;50.966;6.878;2023-02-28T01:47:58;4.13;;;2.37;;
43529;SDS011;55654;50.966;6.878;2023-02-28T01:50:27;6.73;;;2.27;;
43529;SDS011;55654;50.966;6.878;2023-02-28T01:52:56;4.80;;;2.47;;
43529;SDS011;55654;50.966;6.878;2023-02-28T01:55:26;2.90;;;2.07;;
43529;SDS011;55654;50.966;6.878;2023-02-28T01:57:56;5.27;;;2.53;;
43529;SDS011;55654;50.966;6.878;2023-02-28T02:00:24;4.60;;;2.30;;
43529;SDS011;55654;50.966;6.878;2023-02-28T02:02:55;6.97;;;2.20;;
43529;SDS011;55654;50.966;6.878;2023-02-28T02:05:26;3.87;;;2.73;;
43529;SDS011;55654;50.966;6.878;2023-02-28T02:10:51;7.90;;;2.03;;
43529;SDS011;55654;50.966;6.878;2023-02-28T02:16:24;4.97;;;2.33;;
43529;SDS011;55654;50.966;6.878;2023-02-28T02:19:14;3.37;;;2.33;;
43529;SDS011;55654;50.966;6.878;2023-02-28T02:24:23;5.23;;;2.40;;
43529;SDS011;55654;50.966;6.878;2023-02-28T02:34:58;6.57;;;2.72;;
43529;SDS011;55654;50.966;6.878;2023-02-28T02:40:16;4.10;;;2.33;;
43529;SDS011;55654;50.966;6.878;2023-02-28T02:45:09;4.70;;;2.27;;
43529;SDS011;55654;50.966;6.878;2023-02-28T02:47:39;4.40;;;2.10;;
43529;SDS011;55654;50.966;6.878;2023-02-28T02:50:07;6.07;;;2.40;;
43529;SDS011;55654;50.966;6.878;2023-02-28T02:52:36;5.10;;;2.30;;
43529;SDS011;55654;50.966;6.878;2023-02-28T02:55:04;8.30;;;2.60;;
43529;SDS011;55654;50.966;6.878;2023-02-28T02:57:33;2.90;;;2.50;;
43529;SDS011;55654;50.966;6.878;2023-02-28T03:00:02;2.60;;;2.17;;
43529;SDS011;55654;50.966;6.878;2023-02-28T03:02:29;3.73;;;2.40;;
43529;SDS011;55654;50.966;6.878;2023-02-28T03:05:00;5.50;;;1.93;;
43529;SDS011;55654;50.966;6.878;2023-02-28T03:07:28;4.50;;;1.80;;
43529;SDS011;55654;50.966;6.878;2023-02-28T03:09:54;4.70;;;2.57;;
43529;SDS011;55654;50.966;6.878;2023-02-28T03:12:21;6.73;;;2.27;;
43529;SDS011;55654;50.966;6.878;2023-02-28T03:24:52;3.27;;;2.30;;
43529;SDS011;55654;50.966;6.878;2023-02-28T03:27:25;3.57;;;2.40;;
43529;SDS011;55654;50.966;6.878;2023-02-28T03:35:19;3.80;;;1.97;;
43529;SDS011;55654;50.966;6.878;2023-02-28T03:37:47;2.47;;;1.90;;
43529;SDS011;55654;50.966;6.878;2023-02-28T03:40:23;3.07;;;2.17;;
43529;SDS011;55654;50.966;6.878;2023-02-28T03:42:51;6.87;;;2.57;;
43529;SDS011;55654;50.966;6.878;2023-02-28T03:45:21;4.37;;;2.40;;
43529;SDS011;55654;50.966;6.878;2023-02-28T03:47:57;3.80;;;2.50;;
43529;SDS011;55654;50.966;6.878;2023-02-28T03:50:25;5.83;;;2.87;;
43529;SDS011;55654;50.966;6.878;2023-02-28T03:52:58;6.83;;;2.57;;
43529;SDS011;55654;50.966;6.878;2023-02-28T03:55:30;3.17;;;2.17;;
43529;SDS011;55654;50.966;6.878;2023-02-28T03:58:01;3.57;;;2.30;;
43529;SDS011;55654;50.966;6.878;2023-02-28T04:00:31;7.57;;;4.07;;
43529;SDS011;55654;50.966;6.878;2023-02-28T04:02:59;5.57;;;2.60;;
43529;SDS011;55654;50.966;6.878;2023-02-28T04:05:25;4.47;;;2.70;;
43529;SDS011;55654;50.966;6.878;2023-02-28T04:07:52;4.33;;;2.67;;
43529;SDS011;55654;50.966;6.878;2023-02-28T04:10:20;7.13;;;3.13;;
43529;SDS011;55654;50.966;6.878;2023-02-28T04:12:46;4.67;;;3.43;;
43529;SDS011;55654;50.966;6.878;2023-02-28T04:15:12;5.20;;;3.40;;
43529;SDS011;55654;50.966;6.878;2023-02-28T04:17:38;5.67;;;2.80;;
43529;SDS011;55654;50.966;6.878;2023-02-28T04:20:07;4.93;;;3.03;;
43529;SDS011;55654;50.966;6.878;2023-02-28T04:22:34;5.57;;;3.00;;
43529;SDS011;55654;50.966;6.878;2023-02-28T04:25:01;5.20;;;3.10;;
43529;SDS011;55654;50.966;6.878;2023-02-28T04:27:27;6.87;;;3.37;;
43529;SDS011;55654;50.966;6.878;2023-02-28T04:29:53;5.90;;;2.97;;
43529;SDS011;55654;50.966;6.878;2023-02-28T04:32:18;7.53;;;2.87;;
43529;SDS011;55654;50.966;6.878;2023-02-28T04:34:44;7.53;;;3.53;;
43529;SDS011;55654;50.966;6.878;2023-02-28T04:37:13;3.87;;;2.87;;
43529;SDS011;55654;50.966;6.878;2023-02-28T04:39:39;7.27;;;3.47;;
43529;SDS011;55654;50.966;6.878;2023-02-28T04:42:05;6.13;;;3.57;;
43529;SDS011;55654;50.966;6.878;2023-02-28T04:44:31;6.10;;;3.10;;
43529;SDS011;55654;50.966;6.878;2023-02-28T04:46:57;6.30;;;3.43;;
43529;SDS011;55654;50.966;6.878;2023-02-28T04:49:23;6.73;;;3.73;;
43529;SDS011;55654;50.966;6.878;2023-02-28T04:51:49;6.77;;;3.23;;
43529;SDS011;55654;50.966;6.878;2023-02-28T04:54:18;6.73;;;3.20;;
43529;SDS011;55654;50.966;6.878;2023-02-28T04:56:44;6.10;;;3.53;;
43529;SDS011;55654;50.966;6.878;2023-02-28T04:59:10;6.77;;;3.20;;
43529;SDS011;55654;50.966;6.878;2023-02-28T05:01:38;4.60;;;2.50;;
43529;SDS011;55654;50.966;6.878;2023-02-28T05:04:04;5.23;;;2.63;;
43529;SDS011;55654;50.966;6.878;2023-02-28T05:06:31;14.40;;;3.50;;
43529;SDS011;55654;50.966;6.878;2023-02-28T05:08:57;6.40;;;2.80;;
43529;SDS011;55654;50.966;6.878;2023-02-28T05:11:28;6.30;;;2.50;;
43529;SDS011;55654;50.966;6.878;2023-02-28T05:13:58;6.67;;;3.00;;
43529;SDS011;55654;50.966;6.878;2023-02-28T05:16:24;9.13;;;3.13;;
43529;SDS011;55654;50.966;6.878;2023-02-28T05:18:50;9.70;;;3.70;;
43529;SDS011;55654;50.966;6.878;2023-02-28T05:23:50;4.93;;;2.92;;
43529;SDS011;55654;50.966;6.878;2023-02-28T05:26:17;3.90;;;2.70;;
43529;SDS011;55654;50.966;6.878;2023-02-28T05:28:42;6.27;;;2.70;;
43529;SDS011;55654;50.966;6.878;2023-02-28T05:31:11;4.47;;;2.77;;
43529;SDS011;55654;50.966;6.878;2023-02-28T05:33:38;7.80;;;3.20;;
43529;SDS011;55654;50.966;6.878;2023-02-28T05:36:07;6.83;;;2.90;;
43529;SDS011;55654;50.966;6.878;2023-02-28T05:38:33;4.40;;;3.00;;
43529;SDS011;55654;50.966;6.878;2023-02-28T05:41:04;6.00;;;3.17;;
43529;SDS011;55654;50.966;6.878;2023-02-28T05:43:30;2.90;;;2.57;;
43529;SDS011;55654;50.966;6.878;2023-02-28T05:45:56;8.03;;;2.97;;
43529;SDS011;55654;50.966;6.878;2023-02-28T05:48:24;7.47;;;3.17;;
43529;SDS011;55654;50.966;6.878;2023-02-28T05:50:50;5.70;;;2.97;;
43529;SDS011;55654;50.966;6.878;2023-02-28T05:53:16;5.63;;;2.60;;
43529;SDS011;55654;50.966;6.878;2023-02-28T05:55:42;4.63;;;2.83;;
43529;SDS011;55654;50.966;6.878;2023-02-28T05:58:08;6.60;;;3.00;;
43529;SDS011;55654;50.966;6.878;2023-02-28T06:00:34;4.67;;;2.93;;
43529;SDS011;55654;50.966;6.878;2023-02-28T06:03:03;7.90;;;2.87;;
43529;SDS011;55654;50.966;6.878;2023-02-28T06:05:29;8.40;;;2.90;;
43529;SDS011;55654;50.966;6.878;2023-02-28T06:07:55;8.10;;;3.27;;
43529;SDS011;55654;50.966;6.878;2023-02-28T06:10:21;5.23;;;2.77;;
43529;SDS011;55654;50.966;6.878;2023-02-28T06:12:47;4.70;;;2.93;;
43529;SDS011;55654;50.966;6.878;2023-02-28T06:15:13;6.60;;;3.10;;
43529;SDS011;55654;50.966;6.878;2023-02-28T06:17:43;5.87;;;2.70;;
43529;SDS011;55654;50.966;6.878;2023-02-28T06:20:09;10.10;;;3.30;;
43529;SDS011;55654;50.966;6.878;2023-02-28T06:22:37;5.43;;;2.20;;
43529;SDS011;55654;50.966;6.878;2023-02-28T06:25:04;6.17;;;2.83;;
43529;SDS011;55654;50.966;6.878;2023-02-28T06:27:30;4.47;;;3.10;;
43529;SDS011;55654;50.966;6.878;2023-02-28T06:29:59;5.00;;;2.57;;
43529;SDS011;55654;50.966;6.878;2023-02-28T06:32:25;3.70;;;2.60;;
43529;SDS011;55654;50.966;6.878;2023-02-28T06:34:51;8.53;;;3.20;;
43529;SDS011;55654;50.966;6.878;2023-02-28T06:37:18;3.83;;;2.40;;
43529;SDS011;55654;50.966;6.878;2023-02-28T06:39:44;3.70;;;2.70;;
43529;SDS011;55654;50.966;6.878;2023-02-28T06:42:10;5.70;;;2.60;;
43529;SDS011;55654;50.966;6.878;2023-02-28T06:44:36;4.13;;;2.67;;
43529;SDS011;55654;50.966;6.878;2023-02-28T06:47:03;4.63;;;3.00;;
43529;SDS011;55654;50.966;6.878;2023-02-28T06:49:32;5.80;;;2.77;;
43529;SDS011;55654;50.966;6.878;2023-02-28T06:51:58;5.17;;;2.47;;
43529;SDS011;55654;50.966;6.878;2023-02-28T06:54:24;4.43;;;2.70;;
43529;SDS011;55654;50.966;6.878;2023-02-28T06:56:51;5.17;;;2.27;;
43529;SDS011;55654;50.966;6.878;2023-02-28T06:59:19;4.60;;;2.30;;
43529;SDS011;55654;50.966;6.878;2023-02-28T07:01:45;4.67;;;2.70;;
43529;SDS011;55654;50.966;6.878;2023-02-28T07:04:11;3.50;;;2.10;;
43529;SDS011;55654;50.966;6.878;2023-02-28T07:06:38;4.63;;;2.30;;
43529;SDS011;55654;50.966;6.878;2023-02-28T07:09:04;5.07;;;2.27;;
43529;SDS011;55654;50.966;6.878;2023-02-28T07:11:30;5.17;;;2.03;;
43529;SDS011;55654;50.966;6.878;2023-02-28T07:13:56;8.00;;;2.27;;
43529;SDS011;55654;50.966;6.878;2023-02-28T07:16:23;11.80;;;6.27;;
43529;SDS011;55654;50.966;6.878;2023-02-28T07:18:52;349.33;;;133.70;;
43529;SDS011;55654;50.966;6.878;2023-02-28T07:21:18;295.93;;;113.30;;
43529;SDS011;55654;50.966;6.878;2023-02-28T07:23:44;217.33;;;91.13;;
43529;SDS011;55654;50.966;6.878;2023-02-28T07:26:14;39.87;;;20.50;;
43529;SDS011;55654;50.966;6.878;2023-02-28T07:28:40;29.83;;;16.27;;
43529;SDS011;55654;50.966;6.878;2023-02-28T07:31:07;20.93;;;14.53;;
43529;SDS011;55654;50.966;6.878;2023-02-28T07:33:34;8.87;;;3.73;;
43529;SDS011;55654;50.966;6.878;2023-02-28T07:36:04;4.20;;;2.47;;
43529;SDS011;55654;50.966;6.878;2023-02-28T07:38:31;5.50;;;2.70;;
43529;SDS011;55654;50.966;6.878;2023-02-28T07:41:01;4.23;;;2.20;;
43529;SDS011;55654;50.966;6.878;2023-02-28T07:43:29;101.83;;;47.20;;
43529;SDS011;55654;50.966;6.878;2023-02-28T07:45:55;92.37;;;45.63;;
43529;SDS011;55654;50.966;6.878;2023-02-28T07:48:21;22.03;;;12.97;;
43529;SDS011;55654;50.966;6.878;2023-02-28T07:50:54;15.67;;;11.00;;
43529;SDS011;55654;50.966;6.878;2023-02-28T07:53:23;3.70;;;2.03;;
43529;SDS011;55654;50.966;6.878;2023-02-28T07:55:49;4.73;;;2.73;;
43529;SDS011;55654;50.966;6.878;2023-02-28T07:58:15;4.37;;;2.07;;
43529;SDS011;55654;50.966;6.878;2023-02-28T08:00:41;3.90;;;2.93;;
43529;SDS011;55654;50.966;6.878;2023-02-28T08:03:12;2.83;;;1.80;;
43529;SDS011;55654;50.966;6.878;2023-02-28T08:05:39;5.73;;;2.00;;
43529;SDS011;55654;50.966;6.878;2023-02-28T08:08:05;2.00;;;1.70;;
43529;SDS011;55654;50.966;6.878;2023-02-28T08:10:31;4.60;;;2.83;;
43529;SDS011;55654;50.966;6.878;2023-02-28T08:12:57;6.00;;;3.40;;
43529;SDS011;55654;50.966;6.878;2023-02-28T08:15:23;4.87;;;3.53;;
43529;SDS011;55654;50.966;6.878;2023-02-28T08:17:49;6.43;;;4.17;;
43529;SDS011;55654;50.966;6.878;2023-02-28T08:20:15;38.30;;;21.77;;
43529;SDS011;55654;50.966;6.878;2023-02-28T08:22:41;10.37;;;6.57;;
43529;SDS011;55654;50.966;6.878;2023-02-28T08:25:08;12.43;;;9.73;;
43529;SDS011;55654;50.966;6.878;2023-02-28T08:27:34;12.33;;;8.83;;
43529;SDS011;55654;50.966;6.878;2023-02-28T08:30:03;3.90;;;3.13;;
43529;SDS011;55654;50.966;6.878;2023-02-28T08:32:29;3.97;;;1.87;;
43529;SDS011;55654;50.966;6.878;2023-02-28T08:34:55;4.87;;;1.30;;
43529;SDS011;55654;50.966;6.878;2023-02-28T08:37:21;4.60;;;2.10;;
43529;SDS011;55654;50.966;6.878;2023-02-28T08:39:47;2.30;;;1.80;;
43529;SDS011;55654;50.966;6.878;2023-02-28T08:42:13;3.30;;;1.80;;
43529;SDS011;55654;50.966;6.878;2023-02-28T08:44:40;2.07;;;1.70;;
43529;SDS011;55654;50.966;6.878;2023-02-28T08:47:06;6.73;;;2.03;;
43529;SDS011;55654;50.966;6.878;2023-02-28T08:49:32;4.97;;;2.40;;
43529;SDS011;55654;50.966;6.878;2023-02-28T08:51:58;4.53;;;1.90;;
43529;SDS011;55654;50.966;6.878;2023-02-28T08:54:24;4.37;;;2.57;;
43529;SDS011;55654;50.966;6.878;2023-02-28T08:56:50;4.07;;;2.07;;
43529;SDS011;55654;50.966;6.878;2023-02-28T08:59:16;3.33;;;1.93;;
43529;SDS011;55654;50.966;6.878;2023-02-28T09:01:44;6.87;;;3.10;;
43529;SDS011;55654;50.966;6.878;2023-02-28T09:04:10;2.60;;;1.60;;
43529;SDS011;55654;50.966;6.878;2023-02-28T09:06:37;3.27;;;2.30;;
43529;SDS011;55654;50.966;6.878;2023-02-28T09:09:03;3.50;;;2.10;;
43529;SDS011;55654;50.966;6.878;2023-02-28T09:11:31;2.63;;;1.73;;
43529;SDS011;55654;50.966;6.878;2023-02-28T09:13:58;3.77;;;2.10;;
43529;SDS011;55654;50.966;6.878;2023-02-28T09:16:25;6.83;;;2.37;;
43529;SDS011;55654;50.966;6.878;2023-02-28T09:18:51;4.03;;;1.30;;
43529;SDS011;55654;50.966;6.878;2023-02-28T09:21:18;3.43;;;1.77;;
43529;SDS011;55654;50.966;6.878;2023-02-28T09:23:45;3.93;;;1.50;;
43529;SDS011;55654;50.966;6.878;2023-02-28T09:26:20;3.50;;;1.90;;
43529;SDS011;55654;50.966;6.878;2023-02-28T09:28:47;5.10;;;2.77;;
43529;SDS011;55654;50.966;6.878;2023-02-28T09:31:14;5.80;;;2.63;;
43529;SDS011;55654;50.966;6.878;2023-02-28T09:33:40;2.13;;;1.90;;
43529;SDS011;55654;50.966;6.878;2023-02-28T09:36:06;3.70;;;2.53;;
43529;SDS011;55654;50.966;6.878;2023-02-28T09:38:32;6.37;;;3.80;;
43529;SDS011;55654;50.966;6.878;2023-02-28T09:41:22;5.30;;;2.93;;
43529;SDS011;55654;50.966;6.878;2023-02-28T09:43:50;5.97;;;1.97;;
43529;SDS011;55654;50.966;6.878;2023-02-28T09:48:47;4.37;;;1.70;;
43529;SDS011;55654;50.966;6.878;2023-02-28T09:53:51;5.20;;;2.73;;
43529;SDS011;55654;50.966;6.878;2023-02-28T09:56:29;5.97;;;2.77;;
43529;SDS011;55654;50.966;6.878;2023-02-28T10:01:53;5.30;;;1.53;;
43529;SDS011;55654;50.966;6.878;2023-02-28T10:06:53;3.00;;;2.03;;
43529;SDS011;55654;50.966;6.878;2023-02-28T10:09:21;3.30;;;1.50;;
43529;SDS011;55654;50.966;6.878;2023-02-28T10:11:48;3.67;;;1.50;;
43529;SDS011;55654;50.966;6.878;2023-02-28T10:14:20;2.60;;;1.10;;
43529;SDS011;55654;50.966;6.878;2023-02-28T10:19:24;3.87;;;1.77;;
43529;SDS011;55654;50.966;6.878;2023-02-28T10:21:58;2.73;;;1.37;;
43529;SDS011;55654;50.966;6.878;2023-02-28T10:24:35;6.63;;;5.13;;
43529;SDS011;55654;50.966;6.878;2023-02-28T10:27:17;3.47;;;1.70;;
43529;SDS011;55654;50.966;6.878;2023-02-28T10:29:45;10.83;;;8.37;;
43529;SDS011;55654;50.966;6.878;2023-02-28T10:32:13;6.27;;;5.67;;
43529;SDS011;55654;50.966;6.878;2023-02-28T10:34:40;8.83;;;5.13;;
43529;SDS011;55654;50.966;6.878;2023-02-28T10:37:06;3.37;;;2.73;;
43529;SDS011;55654;50.966;6.878;2023-02-28T10:42:02;1.87;;;1.10;;
43529;SDS011;55654;50.966;6.878;2023-02-28T10:44:28;2.60;;;1.60;;
43529;SDS011;55654;50.966;6.878;2023-02-28T10:46:54;2.63;;;1.40;;
43529;SDS011;55654;50.966;6.878;2023-02-28T10:49:30;5.53;;;2.30;;
43529;SDS011;55654;50.966;6.878;2023-02-28T10:51:57;5.70;;;2.67;;
43529;SDS011;55654;50.966;6.878;2023-02-28T10:59:32;3.90;;;1.87;;
43529;SDS011;55654;50.966;6.878;2023-02-28T11:02:00;2.73;;;1.40;;
43529;SDS011;55654;50.966;6.878;2023-02-28T11:07:14;3.40;;;1.67;;
43529;SDS011;55654;50.966;6.878;2023-02-28T11:09:44;3.37;;;1.63;;
43529;SDS011;55654;50.966;6.878;2023-02-28T11:12:26;4.67;;;1.90;;
43529;SDS011;55654;50.966;6.878;2023-02-28T11:14:54;1.40;;;1.10;;
43529;SDS011;55654;50.966;6.878;2023-02-28T11:17:31;2.17;;;1.33;;
43529;SDS011;55654;50.966;6.878;2023-02-28T11:20:05;2.83;;;1.50;;
43529;SDS011;55654;50.966;6.878;2023-02-28T11:22:36;3.30;;;1.50;;
43529;SDS011;55654;50.966;6.878;2023-02-28T11:25:16;7.37;;;1.50;;
43529;SDS011;55654;50.966;6.878;2023-02-28T11:27:49;2.43;;;1.70;;
43529;SDS011;55654;50.966;6.878;2023-02-28T11:33:00;3.27;;;1.83;;
43529;SDS011;55654;50.966;6.878;2023-02-28T11:35:28;2.37;;;1.50;;
43529;SDS011;55654;50.966;6.878;2023-02-28T11:37:56;3.97;;;1.60;;
43529;SDS011;55654;50.966;6.878;2023-02-28T11:45:56;2.30;;;1.47;;
43529;SDS011;55654;50.966;6.878;2023-02-28T11:48:48;5.03;;;3.17;;
43529;SDS011;55654;50.966;6.878;2023-02-28T11:51:33;2.97;;;1.50;;
43529;SDS011;55654;50.966;6.878;2023-02-28T11:56:31;5.37;;;2.40;;
43529;SDS011;55654;50.966;6.878;2023-02-28T12:12:12;2.70;;;1.60;;
43529;SDS011;55654;50.966;6.878;2023-02-28T12:17:22;3.07;;;1.73;;
43529;SDS011;55654;50.966;6.878;2023-02-28T12:25:08;2.53;;;1.90;;
43529;SDS011;55654;50.966;6.878;2023-02-28T12:27:40;3.77;;;1.70;;
43529;SDS011;55654;50.966;6.878;2023-02-28T12:30:24;3.77;;;1.80;;
43529;SDS011;55654;50.966;6.878;2023-02-28T12:32:53;3.00;;;2.07;;
43529;SDS011;55654;50.966;6.878;2023-02-28T12:35:23;4.13;;;2.00;;
43529;SDS011;55654;50.966;6.878;2023-02-28T12:37:52;3.20;;;1.77;;
43529;SDS011;55654;50.966;6.878;2023-02-28T12:40:23;3.50;;;1.80;;
43529;SDS011;55654;50.966;6.878;2023-02-28T12:42:50;5.93;;;3.37;;
43529;SDS011;55654;50.966;6.878;2023-02-28T12:45:27;4.83;;;2.23;;
43529;SDS011;55654;50.966;6.878;2023-02-28T12:47:58;2.83;;;2.20;;
43529;SDS011;55654;50.966;6.878;2023-02-28T12:50:26;5.70;;;2.20;;
43529;SDS011;55654;50.966;6.878;2023-02-28T12:52:54;6.33;;;3.57;;
43529;SDS011;55654;50.966;6.878;2023-02-28T13:08:59;5.13;;;3.63;;
43529;SDS011;55654;50.966;6.878;2023-02-28T13:11:45;4.00;;;2.20;;
43529;SDS011;55654;50.966;6.878;2023-02-28T13:15:00;5.47;;;3.20;;
43529;SDS011;55654;50.966;6.878;2023-02-28T13:19:30;5.10;;;2.80;;
43529;SDS011;55654;50.966;6.878;2023-02-28T13:21:59;5.07;;;2.37;;
43529;SDS011;55654;50.966;6.878;2023-02-28T13:29:42;3.30;;;2.50;;
43529;SDS011;55654;50.966;6.878;2023-02-28T13:34:36;4.90;;;2.60;;
43529;SDS011;55654;50.966;6.878;2023-02-28T13:52:44;3.80;;;2.57;;
43529;SDS011;55654;50.966;6.878;2023-02-28T14:05:20;3.57;;;2.10;;
43529;SDS011;55654;50.966;6.878;2023-02-28T14:07:51;4.47;;;2.10;;
43529;SDS011;55654;50.966;6.878;2023-02-28T14:10:26;6.13;;;2.50;;
43529;SDS011;55654;50.966;6.878;2023-02-28T14:12:54;3.50;;;2.00;;
43529;SDS011;55654;50.966;6.878;2023-02-28T14:17:54;3.50;;;2.08;;
43529;SDS011;55654;50.966;6.878;2023-02-28T14:20:26;3.63;;;2.00;;
43529;SDS011;55654;50.966;6.878;2023-02-28T14:22:58;3.77;;;1.90;;
43529;SDS011;55654;50.966;6.878;2023-02-28T14:25:33;4.67;;;2.50;;
43529;SDS011;55654;50.966;6.878;2023-02-28T14:28:09;4.20;;;2.10;;
43529;SDS011;55654;50.966;6.878;2023-02-28T14:33:08;3.23;;;2.10;;
43529;SDS011;55654;50.966;6.878;2023-02-28T14:38:13;3.88;;;2.05;;
43529;SDS011;55654;50.966;6.878;2023-02-28T14:40:40;3.83;;;2.20;;
43529;SDS011;55654;50.966;6.878;2023-02-28T14:43:16;3.43;;;1.83;;
43529;SDS011;55654;50.966;6.878;2023-02-28T14:45:48;5.30;;;3.53;;
43529;SDS011;55654;50.966;6.878;2023-02-28T14:48:14;3.50;;;2.13;;
43529;SDS011;55654;50.966;6.878;2023-02-28T14:50:41;3.63;;;2.20;;
43529;SDS011;55654;50.966;6.878;2023-02-28T14:53:15;3.80;;;2.43;;
43529;SDS011;55654;50.966;6.878;2023-02-28T14:55:44;6.17;;;2.40;;
43529;SDS011;55654;50.966;6.878;2023-02-28T15:01:09;5.67;;;2.77;;
43529;SDS011;55654;50.966;6.878;2023-02-28T15:03:36;3.33;;;2.50;;
43529;SDS011;55654;50.966;6.878;2023-02-28T15:06:04;3.47;;;2.30;;
43529;SDS011;55654;50.966;6.878;2023-02-28T15:08:31;3.67;;;2.80;;
43529;SDS011;55654;50.966;6.878;2023-02-28T15:11:13;5.37;;;2.97;;
43529;SDS011;55654;50.966;6.878;2023-02-28T15:13:45;5.73;;;2.67;;
43529;SDS011;55654;50.966;6.878;2023-02-28T15:16:19;5.50;;;2.53;;
43529;SDS011;55654;50.966;6.878;2023-02-28T15:21:21;5.23;;;2.63;;
43529;SDS011;55654;50.966;6.878;2023-02-28T15:23:51;5.90;;;2.20;;
43529;SDS011;55654;50.966;6.878;2023-02-28T15:26:20;3.57;;;2.10;;
43529;SDS011;55654;50.966;6.878;2023-02-28T15:28:47;5.07;;;2.53;;
43529;SDS011;55654;50.966;6.878;2023-02-28T15:31:27;4.30;;;2.60;;
43529;SDS011;55654;50.966;6.878;2023-02-28T15:33:56;5.43;;;2.57;;
43529;SDS011;55654;50.966;6.878;2023-02-28T15:36:26;4.17;;;2.43;;
43529;SDS011;55654;50.966;6.878;2023-02-28T15:38:54;4.60;;;2.33;;
43529;SDS011;55654;50.966;6.878;2023-02-28T15:41:27;4.27;;;2.67;;
43529;SDS011;55654;50.966;6.878;2023-02-28T15:46:38;5.10;;;2.70;;
43529;SDS011;55654;50.966;6.878;2023-02-28T15:49:12;4.37;;;2.50;;
43529;SDS011;55654;50.966;6.878;2023-02-28T15:51:42;6.07;;;2.53;;
43529;SDS011;55654;50.966;6.878;2023-02-28T15:54:10;2.77;;;1.93;;
43529;SDS011;55654;50.966;6.878;2023-02-28T15:56:42;3.63;;;2.20;;
43529;SDS011;55654;50.966;6.878;2023-02-28T15:59:13;3.80;;;2.47;;
43529;SDS011;55654;50.966;6.878;2023-02-28T16:01:39;3.23;;;2.50;;
43529;SDS011;55654;50.966;6.878;2023-02-28T16:04:06;6.37;;;3.33;;
43529;SDS011;55654;50.966;6.878;2023-02-28T16:09:08;5.83;;;3.33;;
43529;SDS011;55654;50.966;6.878;2023-02-28T16:11:35;3.57;;;2.80;;
43529;SDS011;55654;50.966;6.878;2023-02-28T16:14:02;5.13;;;2.70;;
43529;SDS011;55654;50.966;6.878;2023-02-28T16:16:28;4.63;;;3.23;;
43529;SDS011;55654;50.966;6.878;2023-02-28T16:18:54;4.30;;;2.93;;
43529;SDS011;55654;50.966;6.878;2023-02-28T16:21:20;4.53;;;2.27;;
43529;SDS011;55654;50.966;6.878;2023-02-28T16:23:46;6.87;;;4.50;;
43529;SDS011;55654;50.966;6.878;2023-02-28T16:26:18;12.03;;;7.47;;
43529;SDS011;55654;50.966;6.878;2023-02-28T16:28:45;7.15;;;4.03;;
43529;SDS011;55654;50.966;6.878;2023-02-28T16:31:11;39.30;;;23.37;;
43529;SDS011;55654;50.966;6.878;2023-02-28T16:33:41;12.47;;;8.57;;
43529;SDS011;55654;50.966;6.878;2023-02-28T16:36:10;6.03;;;2.90;;
43529;SDS011;55654;50.966;6.878;2023-02-28T16:38:38;3.87;;;3.47;;
43529;SDS011;55654;50.966;6.878;2023-02-28T16:41:04;3.90;;;3.40;;
43529;SDS011;55654;50.966;6.878;2023-02-28T16:43:31;6.17;;;2.57;;
43529;SDS011;55654;50.966;6.878;2023-02-28T16:45:57;6.17;;;5.17;;
43529;SDS011;55654;50.966;6.878;2023-02-28T16:48:23;5.53;;;4.03;;
43529;SDS011;55654;50.966;6.878;2023-02-28T16:50:52;5.57;;;3.30;;
43529;SDS011;55654;50.966;6.878;2023-02-28T16:53:20;10.50;;;6.57;;
43529;SDS011;55654;50.966;6.878;2023-02-28T16:55:48;4.93;;;3.77;;
43529;SDS011;55654;50.966;6.878;2023-02-28T16:58:16;12.23;;;7.97;;
43529;SDS011;55654;50.966;6.878;2023-02-28T17:00:44;5.00;;;2.87;;
43529;SDS011;55654;50.966;6.878;2023-02-28T17:03:28;9.00;;;4.83;;
43529;SDS011;55654;50.966;6.878;2023-02-28T17:05:54;15.47;;;8.43;;
43529;SDS011;55654;50.966;6.878;2023-02-28T17:08:20;14.73;;;7.80;;
43529;SDS011;55654;50.966;6.878;2023-02-28T17:10:48;8.07;;;4.80;;
43529;SDS011;55654;50.966;6.878;2023-02-28T17:13:14;8.87;;;5.33;;
43529;SDS011;55654;50.966;6.878;2023-02-28T17:15:40;33.43;;;17.33;;
43529;SDS011;55654;50.966;6.878;2023-02-28T17:18:08;15.57;;;8.23;;
43529;SDS011;55654;50.966;6.878;2023-02-28T17:23:07;13.70;;;7.67;;
43529;SDS011;55654;50.966;6.878;2023-02-28T17:25:33;11.03;;;6.07;;
43529;SDS011;55654;50.966;6.878;2023-02-28T17:28:01;10.57;;;6.27;;
43529;SDS011;55654;50.966;6.878;2023-02-28T17:30:27;14.60;;;6.43;;
43529;SDS011;55654;50.966;6.878;2023-02-28T17:32:54;7.13;;;4.07;;
43529;SDS011;55654;50.966;6.878;2023-02-28T17:35:20;3.90;;;2.80;;
43529;SDS011;55654;50.966;6.878;2023-02-28T17:37:46;8.00;;;3.60;;